createdAt,value
2019-04-30T00:00:45.649Z,3.03
2019-04-30T00:03:22.487Z,3.13
2019-04-30T00:05:53.741Z,3.13
2019-04-30T00:08:20.070Z,3.10
2019-04-30T00:10:48.050Z,3.37
2019-04-30T00:13:20.690Z,3.33
2019-04-30T00:15:47.843Z,3.10
2019-04-30T00:18:15.566Z,3.70
2019-04-30T00:20:45.306Z,3.40
2019-04-30T00:23:13.189Z,3.73
2019-04-30T00:25:41.273Z,3.80
2019-04-30T00:28:09.186Z,3.80
2019-04-30T00:30:39.274Z,3.67
2019-04-30T00:33:06.853Z,3.47
2019-04-30T00:35:35.547Z,3.50
2019-04-30T00:38:05.039Z,3.53
2019-04-30T00:40:35.056Z,3.27
2019-04-30T00:43:05.262Z,3.70
2019-04-30T00:45:35.379Z,3.20
2019-04-30T00:48:03.164Z,3.23
2019-04-30T00:50:35.891Z,3.23
2019-04-30T00:53:05.946Z,3.20
2019-04-30T00:55:30.605Z,3.57
2019-04-30T00:57:58.648Z,3.10
2019-04-30T01:00:29.626Z,3.43
2019-04-30T01:03:07.883Z,3.77
2019-04-30T01:05:33.214Z,3.40
2019-04-30T01:08:01.173Z,3.13
2019-04-30T01:10:29.094Z,3.57
2019-04-30T01:13:01.831Z,3.13
2019-04-30T01:15:29.033Z,3.40
2019-04-30T01:17:56.491Z,3.60
2019-04-30T01:20:30.964Z,3.77
2019-04-30T01:22:55.002Z,3.23
2019-04-30T01:25:23.830Z,3.33
2019-04-30T01:27:52.021Z,3.20
2019-04-30T01:30:22.727Z,2.93
2019-04-30T01:32:56.477Z,3.30
2019-04-30T01:35:19.541Z,3.20
2019-04-30T01:37:48.812Z,3.37
2019-04-30T01:40:18.830Z,3.50
2019-04-30T01:42:48.617Z,3.43
2019-04-30T01:45:16.558Z,3.73
2019-04-30T01:47:44.540Z,3.37
2019-04-30T01:50:12.779Z,3.50
2019-04-30T01:52:52.962Z,3.37
2019-04-30T01:55:23.803Z,3.80
2019-04-30T01:58:12.528Z,3.20
2019-04-30T02:00:49.315Z,3.27
2019-04-30T02:03:19.340Z,3.03
2019-04-30T02:05:47.650Z,3.37
2019-04-30T02:08:15.560Z,3.60
2019-04-30T02:10:43.564Z,3.43
2019-04-30T02:13:11.467Z,3.67
2019-04-30T02:15:39.379Z,3.23
2019-04-30T02:18:08.646Z,3.77
2019-04-30T02:20:38.374Z,3.47
2019-04-30T02:23:06.559Z,3.30
2019-04-30T02:25:34.631Z,3.53
2019-04-30T02:28:02.715Z,3.67
2019-04-30T02:30:31.225Z,2.90
2019-04-30T02:33:00.599Z,3.60
2019-04-30T02:35:40.830Z,3.43
2019-04-30T02:38:11.906Z,3.40
2019-04-30T02:40:42.628Z,3.10
2019-04-30T02:43:10.308Z,3.10
2019-04-30T02:45:40.211Z,3.00
2019-04-30T02:48:11.801Z,3.50
2019-04-30T02:50:41.132Z,3.40
2019-04-30T02:53:15.371Z,3.83
2019-04-30T02:55:43.785Z,2.93
2019-04-30T02:58:13.994Z,3.30
2019-04-30T03:00:41.880Z,2.93
2019-04-30T03:03:10.332Z,3.77
2019-04-30T03:05:39.216Z,3.50
2019-04-30T03:08:09.569Z,3.43
2019-04-30T03:10:37.087Z,3.70
2019-04-30T03:13:05.017Z,3.37
2019-04-30T03:15:33.063Z,3.07
2019-04-30T03:18:10.386Z,2.90
2019-04-30T03:20:43.984Z,3.27
2019-04-30T03:23:12.002Z,3.07
2019-04-30T03:25:40.535Z,3.07
2019-04-30T03:28:09.777Z,3.60
2019-04-30T03:30:42.048Z,3.57
2019-04-30T03:33:12.219Z,3.50
2019-04-30T03:35:46.590Z,3.67
2019-04-30T03:38:09.449Z,3.43
2019-04-30T03:40:36.795Z,3.33
2019-04-30T03:43:04.814Z,3.60
2019-04-30T03:45:33.067Z,3.20
2019-04-30T03:48:01.137Z,3.63
2019-04-30T03:50:32.985Z,3.47
2019-04-30T03:53:00.431Z,3.00
2019-04-30T03:55:29.943Z,3.10
2019-04-30T03:58:00.078Z,2.93
2019-04-30T04:00:36.589Z,3.20
2019-04-30T04:03:04.552Z,3.20
2019-04-30T04:05:39.898Z,3.43
2019-04-30T04:08:32.845Z,2.90
2019-04-30T04:11:29.850Z,3.07
2019-04-30T04:13:59.718Z,3.10
2019-04-30T04:16:31.777Z,3.27
2019-04-30T04:18:59.854Z,3.23
2019-04-30T04:21:29.798Z,3.40
2019-04-30T04:23:56.687Z,3.30
2019-04-30T04:26:24.589Z,3.10
2019-04-30T04:28:52.600Z,3.13
2019-04-30T04:31:20.526Z,3.37
2019-04-30T04:33:52.307Z,3.23
2019-04-30T04:36:20.009Z,3.30
2019-04-30T04:38:50.415Z,3.40
2019-04-30T04:41:19.717Z,3.40
2019-04-30T04:43:50.065Z,3.60
2019-04-30T04:46:16.726Z,3.70
2019-04-30T04:48:44.937Z,3.33
2019-04-30T04:51:27.601Z,3.70
2019-04-30T04:53:42.747Z,3.90
2019-04-30T04:56:10.843Z,3.93
2019-04-30T04:58:40.238Z,3.83
2019-04-30T05:01:08.677Z,3.70
2019-04-30T05:03:39.895Z,3.23
2019-04-30T05:06:11.494Z,2.83
2019-04-30T05:08:39.533Z,2.70
2019-04-30T05:11:09.454Z,2.43
2019-04-30T05:13:38.642Z,2.90
2019-04-30T05:16:09.087Z,2.73
2019-04-30T05:18:36.849Z,2.60
2019-04-30T05:21:06.265Z,2.43
2019-04-30T05:23:34.269Z,2.20
2019-04-30T05:26:02.744Z,2.20
2019-04-30T05:28:30.856Z,2.17
2019-04-30T05:30:59.443Z,2.30
2019-04-30T05:33:28.600Z,2.30
2019-04-30T05:35:56.828Z,2.30
2019-04-30T05:38:25.134Z,2.33
2019-04-30T05:40:53.253Z,2.50
2019-04-30T05:43:21.420Z,2.27
2019-04-30T05:45:49.501Z,2.20
2019-04-30T05:48:18.571Z,2.60
2019-04-30T05:50:48.993Z,2.40
2019-04-30T05:53:16.569Z,2.73
2019-04-30T05:55:44.524Z,3.00
2019-04-30T05:58:12.464Z,3.10
2019-04-30T06:00:40.460Z,2.90
2019-04-30T06:03:09.482Z,2.70
2019-04-30T06:05:39.335Z,2.73
2019-04-30T06:08:09.314Z,2.67
2019-04-30T06:11:02.683Z,2.70
2019-04-30T06:13:45.037Z,2.70
2019-04-30T06:16:16.131Z,2.50
2019-04-30T06:18:44.233Z,2.53
2019-04-30T06:21:12.544Z,2.60
2019-04-30T06:23:40.475Z,2.83
2019-04-30T06:26:12.250Z,2.73
2019-04-30T06:28:41.595Z,2.33
2019-04-30T06:31:10.061Z,2.30
2019-04-30T06:33:38.896Z,2.10
2019-04-30T06:36:08.558Z,1.93
2019-04-30T06:38:38.604Z,2.30
2019-04-30T06:41:08.611Z,2.53
2019-04-30T06:43:38.562Z,2.20
2019-04-30T06:46:08.741Z,2.33
2019-04-30T06:48:36.799Z,2.10
2019-04-30T06:51:04.767Z,2.20
2019-04-30T06:53:32.963Z,2.07
2019-04-30T06:56:01.225Z,2.30
2019-04-30T06:58:29.565Z,2.30
2019-04-30T07:00:59.844Z,2.30
2019-04-30T07:03:29.062Z,2.20
2019-04-30T07:05:58.637Z,2.10
2019-04-30T07:08:51.974Z,1.97
2019-04-30T07:11:24.202Z,1.90
2019-04-30T07:13:52.559Z,2.30
2019-04-30T07:16:20.744Z,2.30
2019-04-30T07:18:48.974Z,2.30
2019-04-30T07:21:19.546Z,2.43
2019-04-30T07:23:48.552Z,2.10
2019-04-30T07:26:19.686Z,2.20
2019-04-30T07:28:52.761Z,2.27
2019-04-30T07:31:18.989Z,2.27
2019-04-30T07:33:50.733Z,2.20
2019-04-30T07:36:16.316Z,2.20
2019-04-30T07:38:51.738Z,2.23
2019-04-30T07:41:14.141Z,2.50
2019-04-30T07:43:42.175Z,2.33
2019-04-30T07:46:10.238Z,2.20
2019-04-30T07:48:40.242Z,2.30
2019-04-30T07:51:10.337Z,2.40
2019-04-30T07:53:40.183Z,2.70
2019-04-30T07:56:23.916Z,2.10
2019-04-30T07:58:40.179Z,2.43
2019-04-30T08:01:10.318Z,2.70
2019-04-30T08:03:58.872Z,2.20
2019-04-30T08:06:26.950Z,2.43
2019-04-30T08:08:58.308Z,2.70
2019-04-30T08:11:26.451Z,2.67
2019-04-30T08:13:54.329Z,2.63
2019-04-30T08:16:22.417Z,2.70
2019-04-30T08:18:50.422Z,2.40
2019-04-30T08:21:19.047Z,2.40
2019-04-30T08:23:48.981Z,2.57
2019-04-30T08:26:18.702Z,2.10
2019-04-30T08:28:48.604Z,2.50
2019-04-30T08:31:16.196Z,2.83
2019-04-30T08:33:44.059Z,2.60
2019-04-30T08:36:11.971Z,2.63
2019-04-30T08:38:39.890Z,2.63
2019-04-30T08:41:09.355Z,3.00
2019-04-30T08:43:39.281Z,3.00
2019-04-30T08:46:06.978Z,2.90
2019-04-30T08:48:46.093Z,2.70
2019-04-30T08:51:04.651Z,3.00
2019-04-30T08:53:33.967Z,2.73
2019-04-30T08:56:02.148Z,2.40
2019-04-30T08:58:30.156Z,2.90
2019-04-30T09:00:58.793Z,3.10
2019-04-30T09:03:26.955Z,2.93
2019-04-30T09:06:04.807Z,2.67
2019-04-30T09:08:33.147Z,2.63
2019-04-30T09:11:01.053Z,2.73
2019-04-30T09:13:28.965Z,2.67
2019-04-30T09:15:59.174Z,2.40
2019-04-30T09:18:26.584Z,2.77
2019-04-30T09:21:03.336Z,2.43
2019-04-30T09:23:24.316Z,2.80
2019-04-30T09:25:52.530Z,2.40
2019-04-30T09:28:20.563Z,2.40
2019-04-30T09:30:48.519Z,2.47
2019-04-30T09:33:16.597Z,2.67
2019-04-30T09:35:44.491Z,2.53
2019-04-30T09:38:12.535Z,2.63
2019-04-30T09:40:41.794Z,2.40
2019-04-30T09:43:09.879Z,2.40
2019-04-30T09:45:38.532Z,2.60
2019-04-30T09:48:06.722Z,2.50
2019-04-30T09:50:35.036Z,2.80
2019-04-30T09:53:03.358Z,2.83
2019-04-30T09:55:31.493Z,2.70
2019-04-30T09:57:59.512Z,2.57
2019-04-30T10:00:29.309Z,2.90
2019-04-30T10:02:59.435Z,2.30
2019-04-30T10:05:29.072Z,2.73
2019-04-30T10:07:56.969Z,2.83
2019-04-30T10:10:30.275Z,2.63
2019-04-30T10:12:59.289Z,2.80
2019-04-30T10:15:50.815Z,2.60
2019-04-30T10:18:18.964Z,2.97
2019-04-30T10:20:47.222Z,2.70
2019-04-30T10:23:15.254Z,2.23
2019-04-30T10:25:43.234Z,3.00
2019-04-30T10:28:11.152Z,2.70
2019-04-30T10:30:39.167Z,3.07
2019-04-30T10:33:09.819Z,2.50
2019-04-30T10:35:38.530Z,3.13
2019-04-30T10:38:06.807Z,2.70
2019-04-30T10:40:34.714Z,3.10
2019-04-30T10:43:02.672Z,2.83
2019-04-30T10:45:31.003Z,3.13
2019-04-30T10:47:59.307Z,2.93
2019-04-30T10:50:27.248Z,2.37
2019-04-30T10:52:55.167Z,2.30
2019-04-30T10:55:23.097Z,2.50
2019-04-30T10:57:51.077Z,2.53
2019-04-30T11:00:20.651Z,2.70
2019-04-30T11:02:49.644Z,2.97
2019-04-30T11:05:18.755Z,2.60
2019-04-30T11:07:49.442Z,2.80
2019-04-30T11:10:18.911Z,2.50
2019-04-30T11:12:47.278Z,2.70
2019-04-30T11:15:15.400Z,2.90
2019-04-30T11:17:43.644Z,2.77
2019-04-30T11:20:12.498Z,2.70
2019-04-30T11:22:41.614Z,2.70
2019-04-30T11:25:10.304Z,2.73
2019-04-30T11:27:40.837Z,2.90
2019-04-30T11:30:20.401Z,2.40
2019-04-30T11:32:38.765Z,2.80
2019-04-30T11:35:07.327Z,2.80
2019-04-30T11:37:35.255Z,3.40
2019-04-30T11:40:03.402Z,3.00
2019-04-30T11:42:32.373Z,2.63
2019-04-30T11:45:00.599Z,2.70
2019-04-30T11:47:34.033Z,2.67
2019-04-30T11:50:02.271Z,3.27
2019-04-30T11:52:30.282Z,2.50
2019-04-30T11:54:59.691Z,2.80
2019-04-30T11:57:29.816Z,3.33
2019-04-30T11:59:57.644Z,2.67
2019-04-30T12:02:36.403Z,3.23
2019-04-30T12:05:05.509Z,2.53
2019-04-30T12:07:56.467Z,3.00
2019-04-30T12:10:41.791Z,3.17
2019-04-30T12:13:26.182Z,3.00
2019-04-30T12:15:54.593Z,3.17
2019-04-30T12:18:22.629Z,2.77
2019-04-30T12:20:50.594Z,3.00
2019-04-30T12:23:19.015Z,2.90
2019-04-30T12:25:49.152Z,2.70
2019-04-30T12:28:16.803Z,2.80
2019-04-30T12:30:44.686Z,3.13
2019-04-30T12:33:12.679Z,3.10
2019-04-30T12:35:40.667Z,3.27
2019-04-30T12:38:08.875Z,2.80
2019-04-30T12:40:38.907Z,2.60
2019-04-30T12:43:06.863Z,2.80
2019-04-30T12:45:34.931Z,3.10
2019-04-30T12:48:08.629Z,2.90
2019-04-30T12:50:45.316Z,3.10
2019-04-30T12:53:18.925Z,2.73
2019-04-30T12:56:09.012Z,3.13
2019-04-30T12:58:36.988Z,3.13
2019-04-30T13:01:04.983Z,3.10
2019-04-30T13:03:33.009Z,3.47
2019-04-30T13:06:01.820Z,3.20
2019-04-30T13:08:31.163Z,3.40
2019-04-30T13:10:59.960Z,3.10
2019-04-30T13:13:31.489Z,3.10
2019-04-30T13:15:59.884Z,2.57
2019-04-30T13:18:29.486Z,2.70
2019-04-30T13:20:58.855Z,2.50
2019-04-30T13:23:27.024Z,2.63
2019-04-30T13:25:55.043Z,2.50
2019-04-30T13:28:24.627Z,2.70
2019-04-30T13:30:52.617Z,2.70
2019-04-30T13:33:45.991Z,2.60
2019-04-30T13:36:14.399Z,2.97
2019-04-30T13:39:07.189Z,3.00
2019-04-30T13:41:54.094Z,2.93
2019-04-30T13:44:29.400Z,2.70
2019-04-30T13:46:57.555Z,2.80
2019-04-30T13:49:25.563Z,2.60
2019-04-30T13:51:53.610Z,3.00
2019-04-30T13:54:21.702Z,2.93
2019-04-30T13:56:49.672Z,3.07
2019-04-30T13:59:17.554Z,3.10
2019-04-30T14:01:45.645Z,2.70
2019-04-30T14:04:29.591Z,3.30
2019-04-30T14:07:05.743Z,2.47
2019-04-30T14:09:34.473Z,3.20
2019-04-30T14:12:02.472Z,2.83
2019-04-30T14:14:30.513Z,2.90
2019-04-30T14:16:58.698Z,3.10
2019-04-30T14:19:29.553Z,2.67
2019-04-30T14:21:58.991Z,2.83
2019-04-30T14:24:27.015Z,2.93
2019-04-30T14:26:55.003Z,3.80
2019-04-30T14:29:22.998Z,3.00
2019-04-30T14:31:50.930Z,3.30
2019-04-30T14:34:18.915Z,3.30
2019-04-30T14:36:46.873Z,3.27
2019-04-30T14:39:17.136Z,3.17
2019-04-30T14:41:45.790Z,3.13
2019-04-30T14:44:19.234Z,4.70
2019-04-30T14:47:02.454Z,10.40
2019-04-30T14:50:04.176Z,11.83
2019-04-30T14:52:29.225Z,10.10
2019-04-30T14:55:21.581Z,14.77
2019-04-30T14:58:09.693Z,12.53
2019-04-30T15:01:02.479Z,8.60
2019-04-30T15:03:31.434Z,6.57
2019-04-30T15:05:59.435Z,5.80
2019-04-30T15:08:29.187Z,4.50
2019-04-30T15:10:57.039Z,4.57
2019-04-30T15:13:25.087Z,4.53
2019-04-30T15:15:53.185Z,4.57
2019-04-30T15:18:21.218Z,4.20
2019-04-30T15:20:49.877Z,4.50
2019-04-30T15:23:39.757Z,4.40
2019-04-30T15:26:08.631Z,4.40
2019-04-30T15:28:39.284Z,4.60
2019-04-30T15:31:08.577Z,4.43
2019-04-30T15:33:46.974Z,4.83
2019-04-30T15:36:14.943Z,4.83
2019-04-30T15:39:13.981Z,5.27
2019-04-30T15:41:42.120Z,5.03
2019-04-30T15:44:10.114Z,5.27
2019-04-30T15:46:38.100Z,5.03
2019-04-30T15:49:06.291Z,5.83
2019-04-30T15:51:34.337Z,5.67
2019-04-30T15:54:05.519Z,5.53
2019-04-30T15:56:36.975Z,5.13
2019-04-30T15:59:31.144Z,5.47
2019-04-30T16:02:06.267Z,4.70
2019-04-30T16:04:51.683Z,4.73
2019-04-30T16:07:19.697Z,4.33
2019-04-30T16:10:03.125Z,4.80
2019-04-30T16:12:40.285Z,5.03
2019-04-30T16:15:10.000Z,4.80
2019-04-30T16:17:40.737Z,4.87
2019-04-30T16:20:08.831Z,4.93
2019-04-30T16:22:36.843Z,4.83
2019-04-30T16:25:04.879Z,4.53
2019-04-30T16:27:32.789Z,4.70
2019-04-30T16:30:00.702Z,5.10
2019-04-30T16:32:28.630Z,4.40
2019-04-30T16:34:56.523Z,4.30
2019-04-30T16:37:24.531Z,4.93
2019-04-30T16:39:52.570Z,5.90
2019-04-30T16:42:20.722Z,6.20
2019-04-30T16:44:48.786Z,5.87
2019-04-30T16:47:17.190Z,5.67
2019-04-30T16:49:45.270Z,5.93
2019-04-30T16:52:16.304Z,5.53
2019-04-30T16:54:44.564Z,5.20
2019-04-30T16:57:12.527Z,5.77
2019-04-30T16:59:41.958Z,5.90
2019-04-30T17:02:09.918Z,6.07
2019-04-30T17:04:57.630Z,6.37
2019-04-30T17:07:42.960Z,6.47
2019-04-30T17:10:16.103Z,6.70
2019-04-30T17:12:51.505Z,6.40
2019-04-30T17:15:22.326Z,6.40
2019-04-30T17:17:50.378Z,6.77
2019-04-30T17:20:20.587Z,6.20
2019-04-30T17:22:49.667Z,6.27
2019-04-30T17:25:17.871Z,6.10
2019-04-30T17:27:45.772Z,5.90
2019-04-30T17:30:13.861Z,6.73
2019-04-30T17:32:41.778Z,6.27
2019-04-30T17:35:09.771Z,5.97
2019-04-30T17:37:37.675Z,5.60
2019-04-30T17:40:06.278Z,5.30
2019-04-30T17:42:34.299Z,5.50
2019-04-30T17:45:02.202Z,6.70
2019-04-30T17:47:30.237Z,5.73
2019-04-30T17:49:58.897Z,5.67
2019-04-30T17:52:29.804Z,5.90
2019-04-30T17:54:59.490Z,6.27
2019-04-30T17:57:33.872Z,6.23
2019-04-30T17:59:59.120Z,6.10
2019-04-30T18:02:29.357Z,5.90
2019-04-30T18:04:57.724Z,5.87
2019-04-30T18:07:25.785Z,6.40
2019-04-30T18:09:54.414Z,6.37
2019-04-30T18:12:22.679Z,6.77
2019-04-30T18:14:50.628Z,6.40
2019-04-30T18:17:18.541Z,6.27
2019-04-30T18:19:55.964Z,6.37
2019-04-30T18:22:37.688Z,6.23
2019-04-30T18:25:43.159Z,6.80
2019-04-30T18:28:11.096Z,6.30
2019-04-30T18:30:39.683Z,6.10
2019-04-30T18:33:09.711Z,5.93
2019-04-30T18:35:38.788Z,5.77
2019-04-30T18:38:09.632Z,6.00
2019-04-30T18:40:39.542Z,6.50
2019-04-30T18:43:08.526Z,6.03
2019-04-30T18:45:36.434Z,6.20
2019-04-30T18:48:04.470Z,6.30
2019-04-30T18:50:32.465Z,5.93
2019-04-30T18:53:03.083Z,5.90
2019-04-30T18:55:31.050Z,6.40
2019-04-30T18:58:01.389Z,6.30
2019-04-30T19:00:41.222Z,6.97
2019-04-30T19:03:09.385Z,7.17
2019-04-30T19:05:39.337Z,6.53
2019-04-30T19:08:13.077Z,6.93
2019-04-30T19:11:04.436Z,6.90
2019-04-30T19:13:51.180Z,6.30
2019-04-30T19:16:30.803Z,6.27
2019-04-30T19:19:26.860Z,6.20
2019-04-30T19:21:54.935Z,6.90
2019-04-30T19:24:22.933Z,6.37
2019-04-30T19:26:50.985Z,6.50
2019-04-30T19:29:18.927Z,6.40
2019-04-30T19:31:46.856Z,6.07
2019-04-30T19:34:14.739Z,6.40
2019-04-30T19:36:42.684Z,6.60
2019-04-30T19:39:11.657Z,6.60
2019-04-30T19:41:39.574Z,6.53
2019-04-30T19:44:07.510Z,6.90
2019-04-30T19:46:35.568Z,7.27
2019-04-30T19:49:03.633Z,6.50
2019-04-30T19:51:31.776Z,6.53
2019-04-30T19:53:59.933Z,7.20
2019-04-30T19:56:30.329Z,7.20
2019-04-30T19:59:02.783Z,6.97
2019-04-30T20:01:28.645Z,6.60
2019-04-30T20:03:58.673Z,6.27
2019-04-30T20:06:28.606Z,6.20
2019-04-30T20:08:56.122Z,6.10
2019-04-30T20:11:24.116Z,6.37
2019-04-30T20:13:52.049Z,6.03
2019-04-30T20:16:20.053Z,6.60
2019-04-30T20:18:49.020Z,6.47
2019-04-30T20:21:27.918Z,5.77
2019-04-30T20:23:51.173Z,5.70
2019-04-30T20:26:19.287Z,5.90
2019-04-30T20:28:48.774Z,5.93
2019-04-30T20:31:18.897Z,5.73
2019-04-30T20:33:48.806Z,5.90
2019-04-30T20:36:16.251Z,5.80
2019-04-30T20:39:18.290Z,5.60
2019-04-30T20:41:47.768Z,6.03
2019-04-30T20:44:15.681Z,5.83
2019-04-30T20:46:43.584Z,6.13
2019-04-30T20:49:11.517Z,5.97
2019-04-30T20:51:52.201Z,6.23
2019-04-30T20:54:09.196Z,5.93
2019-04-30T20:56:38.917Z,5.80
2019-04-30T20:59:10.512Z,5.47
2019-04-30T21:01:36.743Z,5.30
2019-04-30T21:04:04.742Z,5.27
2019-04-30T21:06:34.939Z,4.70
2019-04-30T21:09:03.276Z,4.90
2019-04-30T21:11:31.275Z,4.10
2019-04-30T21:13:59.218Z,4.07
2019-04-30T21:16:27.243Z,3.90
2019-04-30T21:18:55.206Z,3.90
2019-04-30T21:21:23.107Z,4.20
2019-04-30T21:23:51.216Z,4.27
2019-04-30T21:26:19.614Z,4.80
2019-04-30T21:28:49.487Z,4.90
2019-04-30T21:31:54.285Z,4.83
2019-04-30T21:34:56.456Z,5.00
2019-04-30T21:37:24.469Z,5.27
2019-04-30T21:39:52.446Z,5.73
2019-04-30T21:42:22.243Z,5.40
2019-04-30T21:44:50.181Z,5.00
2019-04-30T21:47:18.171Z,5.40
2019-04-30T21:49:46.103Z,5.13
2019-04-30T21:52:14.011Z,5.53
2019-04-30T21:54:42.025Z,5.37
2019-04-30T21:57:10.003Z,5.60
2019-04-30T21:59:38.806Z,5.43
2019-04-30T22:02:07.660Z,5.10
2019-04-30T22:04:35.576Z,5.30
2019-04-30T22:07:03.534Z,5.43
2019-04-30T22:09:31.463Z,4.90
2019-04-30T22:11:59.383Z,5.00
2019-04-30T22:14:27.288Z,4.80
2019-04-30T22:16:55.195Z,5.20
2019-04-30T22:19:23.119Z,5.33
2019-04-30T22:21:51.094Z,5.43
2019-04-30T22:24:19.043Z,5.43
2019-04-30T22:26:46.948Z,5.37
2019-04-30T22:29:14.998Z,5.07
2019-04-30T22:31:42.919Z,5.00
2019-04-30T22:34:10.903Z,4.80
2019-04-30T22:36:44.115Z,4.77
2019-04-30T22:39:34.205Z,4.63
2019-04-30T22:42:34.387Z,5.03
2019-04-30T22:45:02.954Z,4.17
2019-04-30T22:47:30.877Z,4.73
2019-04-30T22:49:58.831Z,4.30
2019-04-30T22:52:26.746Z,4.47
2019-04-30T22:54:55.141Z,4.43
2019-04-30T22:57:23.988Z,4.37
2019-04-30T22:59:51.984Z,4.20
2019-04-30T23:02:37.618Z,4.27
2019-04-30T23:05:06.527Z,4.23
2019-04-30T23:07:34.563Z,4.70
2019-04-30T23:10:02.446Z,4.33
2019-04-30T23:12:30.347Z,4.83
2019-04-30T23:14:58.276Z,4.43
2019-04-30T23:17:26.225Z,4.27
2019-04-30T23:19:54.111Z,4.17
2019-04-30T23:22:22.003Z,4.23
2019-04-30T23:24:49.983Z,3.80
2019-04-30T23:27:18.010Z,4.03
2019-04-30T23:29:45.991Z,4.07
2019-04-30T23:32:13.974Z,3.63
2019-04-30T23:34:41.963Z,3.47
2019-04-30T23:37:09.895Z,3.53
2019-04-30T23:39:37.821Z,3.87
2019-04-30T23:42:06.187Z,3.80
2019-04-30T23:44:34.122Z,3.70
2019-04-30T23:47:02.124Z,3.87
2019-04-30T23:49:30.062Z,4.23
2019-04-30T23:51:58.025Z,3.83
2019-04-30T23:54:25.920Z,4.23
2019-04-30T23:56:53.835Z,3.87
2019-04-30T23:59:21.809Z,4.47
